sensor_id;sensor_type;location;lat;lon;timestamp;pressure;altitude;pressure_sealevel;temperature;humidity
66381;BME280;53177;52.648;1.214;2024-01-10T00:00:12;102701.25;;;1.42;75.01
66381;BME280;53177;52.648;1.214;2024-01-10T00:02:38;102705.16;;;1.52;74.95
66381;BME280;53177;52.648;1.214;2024-01-10T00:05:04;102702.41;;;1.48;75.13
66381;BME280;53177;52.648;1.214;2024-01-10T00:07:30;102698.44;;;1.57;74.54
66381;BME280;53177;52.648;1.214;2024-01-10T00:09:55;102694.00;;;1.54;74.92
66381;BME280;53177;52.648;1.214;2024-01-10T00:12:22;102699.13;;;1.53;75.17
66381;BME280;53177;52.648;1.214;2024-01-10T00:14:48;102698.19;;;1.51;75.91
66381;BME280;53177;52.648;1.214;2024-01-10T00:17:14;102690.22;;;1.48;76.43
66381;BME280;53177;52.648;1.214;2024-01-10T00:19:39;102682.94;;;1.40;77.38
66381;BME280;53177;52.648;1.214;2024-01-10T00:22:04;102687.09;;;1.55;76.39
66381;BME280;53177;52.648;1.214;2024-01-10T00:24:30;102666.28;;;1.56;77.07
66381;BME280;53177;52.648;1.214;2024-01-10T00:26:55;102672.94;;;1.50;77.55
66381;BME280;53177;52.648;1.214;2024-01-10T00:29:21;102665.88;;;1.47;77.51
66381;BME280;53177;52.648;1.214;2024-01-10T00:31:46;102672.94;;;1.50;77.13
66381;BME280;53177;52.648;1.214;2024-01-10T00:34:12;102672.03;;;1.49;77.58
66381;BME280;53177;52.648;1.214;2024-01-10T00:36:37;102662.38;;;1.46;77.88
66381;BME280;53177;52.648;1.214;2024-01-10T00:39:03;102663.19;;;1.45;77.99
66381;BME280;53177;52.648;1.214;2024-01-10T00:41:29;102664.09;;;1.46;78.74
66381;BME280;53177;52.648;1.214;2024-01-10T00:43:54;102661.56;;;1.48;78.60
66381;BME280;53177;52.648;1.214;2024-01-10T00:46:19;102659.81;;;1.48;78.25
66381;BME280;53177;52.648;1.214;2024-01-10T00:48:45;102657.28;;;1.50;78.39
66381;BME280;53177;52.648;1.214;2024-01-10T00:51:11;102652.72;;;1.44;78.49
66381;BME280;53177;52.648;1.214;2024-01-10T00:53:37;102648.72;;;1.52;77.75
66381;BME280;53177;52.648;1.214;2024-01-10T00:56:04;102644.03;;;1.45;78.43
66381;BME280;53177;52.648;1.214;2024-01-10T00:58:30;102647.50;;;1.44;78.77
66381;BME280;53177;52.648;1.214;2024-01-10T01:00:55;102635.97;;;1.39;79.13
66381;BME280;53177;52.648;1.214;2024-01-10T01:03:21;102648.53;;;1.48;78.82
66381;BME280;53177;52.648;1.214;2024-01-10T01:05:47;102640.19;;;1.37;80.06
66381;BME280;53177;52.648;1.214;2024-01-10T01:08:13;102654.19;;;1.39;81.28
66381;BME280;53177;52.648;1.214;2024-01-10T01:10:38;102640.97;;;1.34;81.22
66381;BME280;53177;52.648;1.214;2024-01-10T01:13:04;102641.78;;;1.33;81.77
66381;BME280;53177;52.648;1.214;2024-01-10T01:15:29;102639.16;;;1.33;82.83
66381;BME280;53177;52.648;1.214;2024-01-10T01:17:54;102645.41;;;1.37;83.27
66381;BME280;53177;52.648;1.214;2024-01-10T01:20:20;102637.81;;;1.41;83.04
66381;BME280;53177;52.648;1.214;2024-01-10T01:22:47;102641.22;;;1.40;83.43
66381;BME280;53177;52.648;1.214;2024-01-10T01:25:12;102635.81;;;1.36;85.42
66381;BME280;53177;52.648;1.214;2024-01-10T01:27:38;102636.56;;;1.33;85.17
66381;BME280;53177;52.648;1.214;2024-01-10T01:30:04;102640.81;;;1.31;85.78
66381;BME280;53177;52.648;1.214;2024-01-10T01:32:31;102636.91;;;1.41;85.50
66381;BME280;53177;52.648;1.214;2024-01-10T01:34:56;102630.75;;;1.39;86.67
66381;BME280;53177;52.648;1.214;2024-01-10T01:37:22;102635.97;;;1.39;87.04
66381;BME280;53177;52.648;1.214;2024-01-10T01:39:47;102637.59;;;1.37;86.87
66381;BME280;53177;52.648;1.214;2024-01-10T01:42:13;102627.13;;;1.35;87.43
66381;BME280;53177;52.648;1.214;2024-01-10T01:44:38;102633.56;;;1.43;87.70
66381;BME280;53177;52.648;1.214;2024-01-10T01:47:04;102623.88;;;1.41;87.93
66381;BME280;53177;52.648;1.214;2024-01-10T01:49:29;102629.09;;;1.41;87.96
66381;BME280;53177;52.648;1.214;2024-01-10T01:51:55;102623.69;;;1.36;88.66
66381;BME280;53177;52.648;1.214;2024-01-10T01:54:21;102633.41;;;1.40;89.20
66381;BME280;53177;52.648;1.214;2024-01-10T01:56:46;102633.28;;;1.37;89.28
66381;BME280;53177;52.648;1.214;2024-01-10T01:59:13;102627.25;;;1.38;90.06
66381;BME280;53177;52.648;1.214;2024-01-10T02:01:39;102627.25;;;1.38;90.37
66381;BME280;53177;52.648;1.214;2024-01-10T02:04:05;102622.38;;;1.46;90.75
66381;BME280;53177;52.648;1.214;2024-01-10T02:06:31;102624.78;;;1.41;91.10
66381;BME280;53177;52.648;1.214;2024-01-10T02:08:59;102626.47;;;1.41;91.73
66381;BME280;53177;52.648;1.214;2024-01-10T02:11:25;102626.56;;;1.42;91.85
66381;BME280;53177;52.648;1.214;2024-01-10T02:13:51;102624.63;;;1.38;92.47
66381;BME280;53177;52.648;1.214;2024-01-10T02:16:19;102625.44;;;1.37;92.87
66381;BME280;53177;52.648;1.214;2024-01-10T02:18:46;102618.41;;;1.35;93.16
66381;BME280;53177;52.648;1.214;2024-01-10T02:21:11;102622.16;;;1.41;93.29
66381;BME280;53177;52.648;1.214;2024-01-10T02:23:37;102620.31;;;1.39;93.72
66381;BME280;53177;52.648;1.214;2024-01-10T02:26:02;102621.28;;;1.41;94.78
66381;BME280;53177;52.648;1.214;2024-01-10T02:28:28;102617.94;;;1.43;95.65
66381;BME280;53177;52.648;1.214;2024-01-10T02:30:54;102616.00;;;1.39;95.59
66381;BME280;53177;52.648;1.214;2024-01-10T02:33:20;102620.38;;;1.40;96.93
66381;BME280;53177;52.648;1.214;2024-01-10T02:35:46;102612.50;;;1.39;97.24
66381;BME280;53177;52.648;1.214;2024-01-10T02:38:11;102605.28;;;1.33;98.03
66381;BME280;53177;52.648;1.214;2024-01-10T02:40:36;102612.38;;;1.36;98.66
66381;BME280;53177;52.648;1.214;2024-01-10T02:43:02;102612.38;;;1.36;99.06
66381;BME280;53177;52.648;1.214;2024-01-10T02:45:28;102607.16;;;1.36;98.96
66381;BME280;53177;52.648;1.214;2024-01-10T02:47:53;102607.16;;;1.36;99.39
66381;BME280;53177;52.648;1.214;2024-01-10T02:50:19;102602.34;;;1.45;98.91
66381;BME280;53177;52.648;1.214;2024-01-10T02:52:45;102596.22;;;1.44;98.90
66381;BME280;53177;52.648;1.214;2024-01-10T02:55:10;102598.03;;;1.45;98.89
66381;BME280;53177;52.648;1.214;2024-01-10T02:57:36;102596.41;;;1.48;98.61
66381;BME280;53177;52.648;1.214;2024-01-10T03:00:02;102597.22;;;1.46;98.43
66381;BME280;53177;52.648;1.214;2024-01-10T03:02:29;102597.00;;;1.42;98.71
66381;BME280;53177;52.648;1.214;2024-01-10T03:04:55;102597.13;;;1.45;98.85
66381;BME280;53177;52.648;1.214;2024-01-10T03:07:20;102596.75;;;1.36;99.00
66381;BME280;53177;52.648;1.214;2024-01-10T03:09:46;102588.56;;;1.48;99.42
66381;BME280;53177;52.648;1.214;2024-01-10T03:12:12;102590.97;;;1.43;99.11
66381;BME280;53177;52.648;1.214;2024-01-10T03:14:37;102587.69;;;1.47;98.82
66381;BME280;53177;52.648;1.214;2024-01-10T03:17:03;102590.97;;;1.43;98.78
66381;BME280;53177;52.648;1.214;2024-01-10T03:19:28;102587.53;;;1.44;99.04
66381;BME280;53177;52.648;1.214;2024-01-10T03:21:54;102587.22;;;1.36;99.55
66381;BME280;53177;52.648;1.214;2024-01-10T03:24:19;102586.50;;;1.40;100.00
66381;BME280;53177;52.648;1.214;2024-01-10T03:26:45;102581.44;;;1.43;100.00
66381;BME280;53177;52.648;1.214;2024-01-10T03:29:10;102579.78;;;1.45;100.00
66381;BME280;53177;52.648;1.214;2024-01-10T03:31:36;102581.34;;;1.42;100.00
66381;BME280;53177;52.648;1.214;2024-01-10T03:34:03;102573.97;;;1.51;100.00
66381;BME280;53177;52.648;1.214;2024-01-10T03:36:28;102577.91;;;1.62;99.80
66381;BME280;53177;52.648;1.214;2024-01-10T03:38:54;102577.44;;;1.52;99.52
66381;BME280;53177;52.648;1.214;2024-01-10T03:41:20;102577.50;;;1.53;99.92
66381;BME280;53177;52.648;1.214;2024-01-10T03:43:46;102575.88;;;1.55;100.00
66381;BME280;53177;52.648;1.214;2024-01-10T03:46:12;102575.78;;;1.54;100.00
66381;BME280;53177;52.648;1.214;2024-01-10T03:48:38;102566.31;;;1.56;100.00
66381;BME280;53177;52.648;1.214;2024-01-10T03:51:13;102574.28;;;1.59;100.00
66381;BME280;53177;52.648;1.214;2024-01-10T03:53:38;102575.31;;;1.62;99.86
66381;BME280;53177;52.648;1.214;2024-01-10T03:56:04;102574.78;;;1.71;98.65
66381;BME280;53177;52.648;1.214;2024-01-10T03:58:30;102566.03;;;1.69;98.74
66381;BME280;53177;52.648;1.214;2024-01-10T04:00:55;102562.41;;;1.65;98.71
66381;BME280;53177;52.648;1.214;2024-01-10T04:03:21;102566.94;;;1.69;98.30
66381;BME280;53177;52.648;1.214;2024-01-10T04:05:46;102566.47;;;1.59;98.75
66381;BME280;53177;52.648;1.214;2024-01-10T04:08:12;102564.72;;;1.59;99.20
66381;BME280;53177;52.648;1.214;2024-01-10T04:10:37;102555.31;;;1.63;98.62
66381;BME280;53177;52.648;1.214;2024-01-10T04:13:03;102563.09;;;1.61;98.20
66381;BME280;53177;52.648;1.214;2024-01-10T04:15:28;102558.78;;;1.62;98.31
66381;BME280;53177;52.648;1.214;2024-01-10T04:17:54;102554.28;;;1.59;98.44
66381;BME280;53177;52.648;1.214;2024-01-10T04:20:19;102563.91;;;1.60;98.15
66381;BME280;53177;52.648;1.214;2024-01-10T04:22:45;102565.00;;;1.65;97.56
66381;BME280;53177;52.648;1.214;2024-01-10T04:25:11;102560.41;;;1.60;97.08
66381;BME280;53177;52.648;1.214;2024-01-10T04:27:37;102556.78;;;1.56;97.79
66381;BME280;53177;52.648;1.214;2024-01-10T04:30:03;102562.28;;;1.62;96.66
66381;BME280;53177;52.648;1.214;2024-01-10T04:32:28;102557.09;;;1.64;96.63
66381;BME280;53177;52.648;1.214;2024-01-10T04:34:53;102559.78;;;1.65;96.59
66381;BME280;53177;52.648;1.214;2024-01-10T04:37:20;102553.47;;;1.60;96.75
66381;BME280;53177;52.648;1.214;2024-01-10T04:39:45;102557.63;;;1.55;97.59
66381;BME280;53177;52.648;1.214;2024-01-10T04:42:11;102559.00;;;1.47;98.55
66381;BME280;53177;52.648;1.214;2024-01-10T04:44:37;102562.56;;;1.49;98.60
66381;BME280;53177;52.648;1.214;2024-01-10T04:47:03;102555.72;;;1.51;98.94
66381;BME280;53177;52.648;1.214;2024-01-10T04:49:29;102555.84;;;1.54;98.97
66381;BME280;53177;52.648;1.214;2024-01-10T04:51:54;102562.75;;;1.54;98.99
66381;BME280;53177;52.648;1.214;2024-01-10T04:54:20;102558.16;;;1.48;99.25
66381;BME280;53177;52.648;1.214;2024-01-10T04:56:45;102553.03;;;1.50;99.34
66381;BME280;53177;52.648;1.214;2024-01-10T04:59:11;102554.03;;;1.53;99.74
66381;BME280;53177;52.648;1.214;2024-01-10T05:01:36;102551.31;;;1.50;99.65
66381;BME280;53177;52.648;1.214;2024-01-10T05:04:02;102550.41;;;1.50;99.80
66381;BME280;53177;52.648;1.214;2024-01-10T05:06:28;102551.78;;;1.41;100.00
66381;BME280;53177;52.648;1.214;2024-01-10T05:08:55;102550.22;;;1.45;100.00
66381;BME280;53177;52.648;1.214;2024-01-10T05:11:24;102552.69;;;1.42;100.00
66381;BME280;53177;52.648;1.214;2024-01-10T05:13:51;102550.16;;;1.43;100.00
66381;BME280;53177;52.648;1.214;2024-01-10T05:16:17;102551.06;;;1.44;100.00
66381;BME280;53177;52.648;1.214;2024-01-10T05:18:43;102547.69;;;1.46;100.00
66381;BME280;53177;52.648;1.214;2024-01-10T05:21:09;102544.94;;;1.43;100.00
66381;BME280;53177;52.648;1.214;2024-01-10T05:23:35;102537.19;;;1.45;99.91
66381;BME280;53177;52.648;1.214;2024-01-10T05:26:01;102544.06;;;1.43;100.00
66381;BME280;53177;52.648;1.214;2024-01-10T05:28:26;102538.84;;;1.43;100.00
66381;BME280;53177;52.648;1.214;2024-01-10T05:30:51;102535.22;;;1.39;100.00
66381;BME280;53177;52.648;1.214;2024-01-10T05:33:17;102537.94;;;1.42;100.00
66381;BME280;53177;52.648;1.214;2024-01-10T05:35:42;102525.13;;;1.47;100.00
66381;BME280;53177;52.648;1.214;2024-01-10T05:38:08;102527.59;;;1.44;100.00
66381;BME280;53177;52.648;1.214;2024-01-10T05:40:33;102531.06;;;1.44;100.00
66381;BME280;53177;52.648;1.214;2024-01-10T05:42:59;102528.53;;;1.46;100.00
66381;BME280;53177;52.648;1.214;2024-01-10T05:45:25;102525.59;;;1.38;100.00
66381;BME280;53177;52.648;1.214;2024-01-10T05:47:50;102521.41;;;1.42;100.00
66381;BME280;53177;52.648;1.214;2024-01-10T05:50:16;102525.72;;;1.41;100.00
66381;BME280;53177;52.648;1.214;2024-01-10T05:52:42;102523.13;;;1.41;100.00
66381;BME280;53177;52.648;1.214;2024-01-10T05:55:09;102526.41;;;1.37;100.00
66381;BME280;53177;52.648;1.214;2024-01-10T05:57:36;102518.22;;;1.28;100.00
66381;BME280;53177;52.648;1.214;2024-01-10T06:00:03;102521.03;;;1.33;100.00
66381;BME280;53177;52.648;1.214;2024-01-10T06:02:28;102522.44;;;1.26;100.00
66381;BME280;53177;52.648;1.214;2024-01-10T06:04:54;102523.09;;;1.21;100.00
66381;BME280;53177;52.648;1.214;2024-01-10T06:07:19;102521.72;;;1.29;100.00
66381;BME280;53177;52.648;1.214;2024-01-10T06:09:46;102510.66;;;1.34;100.00
66381;BME280;53177;52.648;1.214;2024-01-10T06:12:12;102525.25;;;1.31;100.00
66381;BME280;53177;52.648;1.214;2024-01-10T06:14:38;102521.06;;;1.34;100.00
66381;BME280;53177;52.648;1.214;2024-01-10T06:17:04;102521.97;;;1.35;100.00
66381;BME280;53177;52.648;1.214;2024-01-10T06:19:30;102526.25;;;1.33;100.00
66381;BME280;53177;52.648;1.214;2024-01-10T06:21:59;102522.63;;;1.29;100.00
66381;BME280;53177;52.648;1.214;2024-01-10T06:24:25;102518.09;;;1.25;100.00
66381;BME280;53177;52.648;1.214;2024-01-10T06:26:51;102513.63;;;1.23;100.00
66381;BME280;53177;52.648;1.214;2024-01-10T06:29:17;102512.03;;;1.26;100.00
66381;BME280;53177;52.648;1.214;2024-01-10T06:31:43;102508.53;;;1.26;100.00
66381;BME280;53177;52.648;1.214;2024-01-10T06:34:08;102515.06;;;1.35;100.00
66381;BME280;53177;52.648;1.214;2024-01-10T06:36:34;102518.56;;;1.36;100.00
66381;BME280;53177;52.648;1.214;2024-01-10T06:39:00;102512.44;;;1.35;100.00
66381;BME280;53177;52.648;1.214;2024-01-10T06:41:26;102509.06;;;1.38;100.00
66381;BME280;53177;52.648;1.214;2024-01-10T06:43:52;102511.41;;;1.32;100.00
66381;BME280;53177;52.648;1.214;2024-01-10T06:46:18;102515.94;;;1.36;100.00
66381;BME280;53177;52.648;1.214;2024-01-10T06:48:43;102514.75;;;1.48;100.00
66381;BME280;53177;52.648;1.214;2024-01-10T06:51:10;102516.66;;;1.53;100.00
66381;BME280;53177;52.648;1.214;2024-01-10T06:53:36;102519.34;;;1.54;100.00
66381;BME280;53177;52.648;1.214;2024-01-10T06:56:02;102522.97;;;1.58;100.00
66381;BME280;53177;52.648;1.214;2024-01-10T06:58:28;102529.19;;;1.61;100.00
66381;BME280;53177;52.648;1.214;2024-01-10T07:00:53;102528.31;;;1.61;100.00
66381;BME280;53177;52.648;1.214;2024-01-10T07:03:19;102527.28;;;1.57;100.00
66381;BME280;53177;52.648;1.214;2024-01-10T07:05:45;102526.38;;;1.57;100.00
66381;BME280;53177;52.648;1.214;2024-01-10T07:08:10;102529.19;;;1.61;100.00
66381;BME280;53177;52.648;1.214;2024-01-10T07:10:36;102529.00;;;1.57;100.00
66381;BME280;53177;52.648;1.214;2024-01-10T07:13:04;102532.69;;;1.62;100.00
66381;BME280;53177;52.648;1.214;2024-01-10T07:15:30;102535.44;;;1.65;100.00
66381;BME280;53177;52.648;1.214;2024-01-10T07:17:55;102530.31;;;1.66;100.00
66381;BME280;53177;52.648;1.214;2024-01-10T07:20:21;102533.59;;;1.62;100.00
66381;BME280;53177;52.648;1.214;2024-01-10T07:22:49;102533.59;;;1.62;100.00
66381;BME280;53177;52.648;1.214;2024-01-10T07:25:17;102533.72;;;1.65;100.00
66381;BME280;53177;52.648;1.214;2024-01-10T07:27:43;102531.00;;;1.62;100.00
66381;BME280;53177;52.648;1.214;2024-01-10T07:30:09;102540.53;;;1.62;100.00
66381;BME280;53177;52.648;1.214;2024-01-10T07:32:42;102535.31;;;1.62;100.00
66381;BME280;53177;52.648;1.214;2024-01-10T07:35:09;102532.06;;;1.67;100.00
66381;BME280;53177;52.648;1.214;2024-01-10T07:37:39;102533.66;;;1.64;100.00
66381;BME280;53177;52.648;1.214;2024-01-10T07:40:06;102531.00;;;1.62;100.00
66381;BME280;53177;52.648;1.214;2024-01-10T07:42:34;102542.00;;;1.55;100.00
66381;BME280;53177;52.648;1.214;2024-01-10T07:45:00;102535.22;;;1.60;100.00
66381;BME280;53177;52.648;1.214;2024-01-10T07:47:30;102547.66;;;1.66;100.00
66381;BME280;53177;52.648;1.214;2024-01-10T07:49:56;102541.66;;;1.68;100.00
66381;BME280;53177;52.648;1.214;2024-01-10T07:52:22;102545.31;;;1.72;100.00
66381;BME280;53177;52.648;1.214;2024-01-10T07:54:47;102544.34;;;1.70;100.00
66381;BME280;53177;52.648;1.214;2024-01-10T07:57:13;102541.59;;;1.67;100.00
66381;BME280;53177;52.648;1.214;2024-01-10T07:59:39;102541.47;;;1.64;100.00
66381;BME280;53177;52.648;1.214;2024-01-10T08:02:04;102547.66;;;1.66;100.00
66381;BME280;53177;52.648;1.214;2024-01-10T08:04:30;102549.56;;;1.70;100.00
66381;BME280;53177;52.648;1.214;2024-01-10T08:06:55;102550.38;;;1.69;100.00
66381;BME280;53177;52.648;1.214;2024-01-10T08:09:21;102552.31;;;1.73;100.00
66381;BME280;53177;52.648;1.214;2024-01-10T08:11:48;102546.88;;;1.68;100.00
66381;BME280;53177;52.648;1.214;2024-01-10T08:14:14;102558.25;;;1.70;100.00
66381;BME280;53177;52.648;1.214;2024-01-10T08:16:41;102557.19;;;1.65;100.00
66381;BME280;53177;52.648;1.214;2024-01-10T08:19:07;102558.25;;;1.70;100.00
66381;BME280;53177;52.648;1.214;2024-01-10T08:21:33;102562.66;;;1.71;100.00
66381;BME280;53177;52.648;1.214;2024-01-10T08:23:58;102566.97;;;1.71;100.00
66381;BME280;53177;52.648;1.214;2024-01-10T08:26:24;102569.41;;;1.66;100.00
66381;BME280;53177;52.648;1.214;2024-01-10T08:28:49;102566.72;;;1.65;100.00
66381;BME280;53177;52.648;1.214;2024-01-10T08:31:18;102571.13;;;1.66;100.00
66381;BME280;53177;52.648;1.214;2024-01-10T08:33:44;102570.97;;;1.63;100.00
66381;BME280;53177;52.648;1.214;2024-01-10T08:36:10;102578.88;;;1.64;100.00
66381;BME280;53177;52.648;1.214;2024-01-10T08:38:36;102572.84;;;1.65;100.00
66381;BME280;53177;52.648;1.214;2024-01-10T08:41:02;102573.16;;;1.73;100.00
66381;BME280;53177;52.648;1.214;2024-01-10T08:43:29;102564.50;;;1.74;100.00
66381;BME280;53177;52.648;1.214;2024-01-10T08:45:54;102562.78;;;1.74;100.00
66381;BME280;53177;52.648;1.214;2024-01-10T08:48:20;102554.13;;;1.75;100.00
66381;BME280;53177;52.648;1.214;2024-01-10T08:50:46;102557.56;;;1.74;100.00
66381;BME280;53177;52.648;1.214;2024-01-10T08:53:11;102562.03;;;1.77;100.00
66381;BME280;53177;52.648;1.214;2024-01-10T08:55:37;102550.97;;;1.82;100.00
66381;BME280;53177;52.648;1.214;2024-01-10T08:58:05;102557.16;;;1.84;100.00
66381;BME280;53177;52.648;1.214;2024-01-10T09:00:32;102558.53;;;1.97;100.00
66381;BME280;53177;52.648;1.214;2024-01-10T09:02:57;102558.94;;;2.06;100.00
66381;BME280;53177;52.648;1.214;2024-01-10T09:05:23;102561.59;;;2.08;100.00
66381;BME280;53177;52.648;1.214;2024-01-10T09:07:49;102566.22;;;2.15;100.00
66381;BME280;53177;52.648;1.214;2024-01-10T09:10:14;102556.94;;;2.21;100.00
66381;BME280;53177;52.648;1.214;2024-01-10T09:12:40;102561.59;;;2.28;100.00
66381;BME280;53177;52.648;1.214;2024-01-10T09:15:08;102566.03;;;2.31;100.00
66381;BME280;53177;52.648;1.214;2024-01-10T09:17:38;102558.44;;;2.37;100.00
66381;BME280;53177;52.648;1.214;2024-01-10T09:20:04;102563.81;;;2.40;100.00
66381;BME280;53177;52.648;1.214;2024-01-10T09:22:29;102559.91;;;2.51;100.00
66381;BME280;53177;52.648;1.214;2024-01-10T09:24:55;102559.47;;;2.63;99.00
66381;BME280;53177;52.648;1.214;2024-01-10T09:27:20;102563.25;;;2.71;98.37
66381;BME280;53177;52.648;1.214;2024-01-10T09:29:48;102563.44;;;2.75;98.71
66381;BME280;53177;52.648;1.214;2024-01-10T09:32:13;102562.13;;;2.86;97.74
66381;BME280;53177;52.648;1.214;2024-01-10T09:34:39;102565.03;;;2.94;97.55
66381;BME280;53177;52.648;1.214;2024-01-10T09:37:04;102568.75;;;2.99;97.01
66381;BME280;53177;52.648;1.214;2024-01-10T09:39:30;102568.16;;;3.08;97.28
66381;BME280;53177;52.648;1.214;2024-01-10T09:41:58;102566.72;;;3.16;97.15
66381;BME280;53177;52.648;1.214;2024-01-10T09:44:23;102564.31;;;3.20;97.41
66381;BME280;53177;52.648;1.214;2024-01-10T09:46:51;102565.41;;;3.27;95.97
66381;BME280;53177;52.648;1.214;2024-01-10T09:49:17;102563.72;;;3.29;95.68
66381;BME280;53177;52.648;1.214;2024-01-10T09:51:45;102560.34;;;3.31;95.50
66381;BME280;53177;52.648;1.214;2024-01-10T09:54:13;102559.63;;;3.35;95.25
66381;BME280;53177;52.648;1.214;2024-01-10T09:56:41;102565.00;;;3.40;95.11
66381;BME280;53177;52.648;1.214;2024-01-10T09:59:07;102564.25;;;3.42;94.32
66381;BME280;53177;52.648;1.214;2024-01-10T10:01:37;102566.25;;;3.50;94.54
66381;BME280;53177;52.648;1.214;2024-01-10T10:04:04;102564.72;;;3.56;93.76
66381;BME280;53177;52.648;1.214;2024-01-10T10:06:33;102566.53;;;3.59;94.29
66381;BME280;53177;52.648;1.214;2024-01-10T10:08:59;102564.09;;;3.63;94.21
66381;BME280;53177;52.648;1.214;2024-01-10T10:11:25;102558.03;;;3.64;94.06
66381;BME280;53177;52.648;1.214;2024-01-10T10:13:51;102564.34;;;3.69;93.46
66381;BME280;53177;52.648;1.214;2024-01-10T10:16:23;102561.84;;;3.74;93.19
66381;BME280;53177;52.648;1.214;2024-01-10T10:18:50;102561.03;;;3.75;93.15
66381;BME280;53177;52.648;1.214;2024-01-10T10:21:18;102565.47;;;3.77;93.16
66381;BME280;53177;52.648;1.214;2024-01-10T10:23:57;102556.06;;;3.82;93.10
66381;BME280;53177;52.648;1.214;2024-01-10T10:26:23;102563.19;;;3.86;92.84
66381;BME280;53177;52.648;1.214;2024-01-10T10:28:50;102555.53;;;3.92;92.77
66381;BME280;53177;52.648;1.214;2024-01-10T10:31:17;102556.47;;;3.95;91.91
66381;BME280;53177;52.648;1.214;2024-01-10T10:33:44;102563.69;;;4.02;91.54
66381;BME280;53177;52.648;1.214;2024-01-10T10:36:10;102558.63;;;4.06;91.40
66381;BME280;53177;52.648;1.214;2024-01-10T10:38:36;102568.97;;;4.03;93.05
66381;BME280;53177;52.648;1.214;2024-01-10T10:41:04;102572.63;;;4.08;92.37
66381;BME280;53177;52.648;1.214;2024-01-10T10:43:34;102564.31;;;4.20;92.70
66381;BME280;53177;52.648;1.214;2024-01-10T10:46:01;102561.78;;;4.23;91.04
66381;BME280;53177;52.648;1.214;2024-01-10T10:48:28;102564.91;;;4.38;92.04
66381;BME280;53177;52.648;1.214;2024-01-10T10:51:12;102555.50;;;4.45;90.44
66381;BME280;53177;52.648;1.214;2024-01-10T10:53:42;102556.47;;;4.48;88.31
66381;BME280;53177;52.648;1.214;2024-01-10T10:56:11;102551.47;;;4.56;88.42
66381;BME280;53177;52.648;1.214;2024-01-10T10:58:42;102552.97;;;4.48;88.33
66381;BME280;53177;52.648;1.214;2024-01-10T11:01:11;102549.44;;;4.46;87.49
66381;BME280;53177;52.648;1.214;2024-01-10T11:03:40;102549.75;;;4.29;86.70
66381;BME280;53177;52.648;1.214;2024-01-10T11:06:06;102544.75;;;4.35;88.63
66381;BME280;53177;52.648;1.214;2024-01-10T11:09:04;102553.13;;;4.25;86.27
66381;BME280;53177;52.648;1.214;2024-01-10T11:21:00;102539.13;;;4.52;83.41
66381;BME280;53177;52.648;1.214;2024-01-10T11:23:58;102541.09;;;4.59;85.07
66381;BME280;53177;52.648;1.214;2024-01-10T11:26:15;102532.03;;;4.76;84.27
66381;BME280;53177;52.648;1.214;2024-01-10T11:28:41;102522.31;;;4.73;83.19
66381;BME280;53177;52.648;1.214;2024-01-10T11:31:07;102527.69;;;4.76;83.87
66381;BME280;53177;52.648;1.214;2024-01-10T11:33:35;102528.66;;;4.80;83.17
66381;BME280;53177;52.648;1.214;2024-01-10T11:36:19;102520.81;;;4.80;81.44
66381;BME280;53177;52.648;1.214;2024-01-10T11:39:08;102524.34;;;4.82;81.86
66381;BME280;53177;52.648;1.214;2024-01-10T11:41:38;102525.19;;;4.81;80.49
66381;BME280;53177;52.648;1.214;2024-01-10T11:46:40;102530.09;;;4.99;81.66
66381;BME280;53177;52.648;1.214;2024-01-10T11:49:10;102528.91;;;4.87;80.24
66381;BME280;53177;52.648;1.214;2024-01-10T11:51:37;102526.81;;;5.06;80.69
66381;BME280;53177;52.648;1.214;2024-01-10T11:54:03;102522.47;;;5.06;79.68
66381;BME280;53177;52.648;1.214;2024-01-10T11:56:39;102512.38;;;4.91;80.28
66381;BME280;53177;52.648;1.214;2024-01-10T11:59:09;102521.41;;;5.01;78.94
66381;BME280;53177;52.648;1.214;2024-01-10T12:01:39;102522.22;;;4.99;78.11
66381;BME280;53177;52.648;1.214;2024-01-10T12:04:06;102512.19;;;4.84;77.13
66381;BME280;53177;52.648;1.214;2024-01-10T12:06:34;102522.75;;;4.87;78.16
66381;BME280;53177;52.648;1.214;2024-01-10T12:09:00;102516.72;;;4.89;76.99
66381;BME280;53177;52.648;1.214;2024-01-10T12:11:30;102512.66;;;5.01;78.52
66381;BME280;53177;52.648;1.214;2024-01-10T12:13:55;102517.81;;;4.98;76.61
66381;BME280;53177;52.648;1.214;2024-01-10T12:16:23;102515.16;;;4.96;75.90
66381;BME280;53177;52.648;1.214;2024-01-10T12:18:49;102508.34;;;5.03;76.01
66381;BME280;53177;52.648;1.214;2024-01-10T12:21:16;102503.16;;;4.74;73.33
66381;BME280;53177;52.648;1.214;2024-01-10T12:23:43;102506.00;;;4.82;74.05
66381;BME280;53177;52.648;1.214;2024-01-10T12:26:10;102507.94;;;4.89;73.86
66381;BME280;53177;52.648;1.214;2024-01-10T12:28:38;102498.97;;;4.81;73.00
66381;BME280;53177;52.648;1.214;2024-01-10T12:31:05;102500.75;;;4.82;71.69
66381;BME280;53177;52.648;1.214;2024-01-10T12:33:32;102506.09;;;4.85;72.22
66381;BME280;53177;52.648;1.214;2024-01-10T12:36:10;102504.00;;;5.03;72.42
66381;BME280;53177;52.648;1.214;2024-01-10T12:38:38;102500.59;;;5.06;71.63
66381;BME280;53177;52.648;1.214;2024-01-10T12:41:04;102495.34;;;5.06;70.75
66381;BME280;53177;52.648;1.214;2024-01-10T12:43:30;102495.78;;;4.91;68.99
66381;BME280;53177;52.648;1.214;2024-01-10T12:46:11;102488.63;;;4.85;69.80
66381;BME280;53177;52.648;1.214;2024-01-10T12:48:40;102487.88;;;4.89;69.23
66381;BME280;53177;52.648;1.214;2024-01-10T12:51:11;102485.09;;;4.83;68.29
66381;BME280;53177;52.648;1.214;2024-01-10T12:53:38;102479.19;;;4.92;69.21
66381;BME280;53177;52.648;1.214;2024-01-10T12:56:05;102479.84;;;4.83;66.90
66381;BME280;53177;52.648;1.214;2024-01-10T12:58:31;102486.84;;;4.84;67.48
66381;BME280;53177;52.648;1.214;2024-01-10T13:00:57;102483.78;;;4.99;68.25
66381;BME280;53177;52.648;1.214;2024-01-10T13:03:23;102491.63;;;4.99;68.83
66381;BME280;53177;52.648;1.214;2024-01-10T13:05:50;102493.66;;;4.78;64.61